Pendaries, New Mexico
Current Conditions -  °F | °C
As of 11:53 AM on Monday 20 Oct 2014 (Local Time) from KLVS Reporting Station
Clear Clear  
Wind Chill: 18°   Ceiling: Unl
Heat Index: 18°   Visibility: 10mi
Dew Point:   Wind: 10mph
Humidity: 43%   Direction: 70°ENE
Pressure: 30.27"   Gusts: NA
Location:  35.8214°N, 105.333°W
Report Text: KLVS 201753Z AUTO 07009KT 040V100 10SM CLR 18/05 A3027 RMK AO2 SLP175 T01780050 10178 20033 58001
Loading
Personal Weather Stations






























Interactive Weather Map
Tropical Storm Tracking
New forecast layout! Learn more

10-Day Weather Forecast

Advertisements
Track Severe Weather on mobile